Time;durP1;ratioP1;P1;durP2;ratioP2;P2;SDS_P1;SDS_P2;PMS_P1;PMS_P2;Temp;Humidity;BMP_temperature;BMP_pressure;BME280_temperature;BME280_humidity;BME280_pressure;Samples;Min_cycle;Max_cycle;Signal;HPM_P1;HPM_P2
2021/11/24 00:01:03;;;;;;;16.20;11.18;;;20.20;90.30;;;;;;5037992;28;20021;-63
2021/11/24 00:03:28;;;;;;;14.98;10.30;;;20.00;90.70;;;;;;5040157;28;20510;-63
2021/11/24 00:05:54;;;;;;;17.42;11.27;;;20.20;90.50;;;;;;5039632;28;20112;-63
2021/11/24 00:08:38;;;;;;;16.23;10.90;;;20.20;91.00;;;;;;5046904;28;20159;-63
2021/11/24 00:11:04;;;;;;;12.98;9.48;;;20.30;90.80;;;;;;5052494;28;20032;-63
2021/11/24 00:13:30;;;;;;;15.30;9.73;;;20.20;91.00;;;;;;5048215;28;20021;-63
2021/11/24 00:15:55;;;;;;;14.00;10.45;;;20.20;90.80;;;;;;5047013;28;20033;-63
2021/11/24 00:18:21;;;;;;;14.30;9.88;;;20.50;90.90;;;;;;5036715;28;20083;-63
2021/11/24 00:20:47;;;;;;;16.77;9.98;;;20.40;90.70;;;;;;5043675;28;20037;-63
2021/11/24 00:23:12;;;;;;;14.52;10.88;;;20.30;90.90;;;;;;5042075;28;20025;-63
2021/11/24 00:25:38;;;;;;;14.82;9.63;;;20.20;90.90;;;;;;5045371;28;20100;-64
2021/11/24 00:28:04;;;;;;;16.95;10.52;;;20.30;90.80;;;;;;5040860;28;20070;-63
2021/11/24 00:30:30;;;;;;;14.20;9.60;;;20.20;90.80;;;;;;5038928;28;20100;-63
2021/11/24 00:32:57;;;;;;;14.25;9.75;;;20.10;90.80;;;;;;5039026;28;20183;-63
2021/11/24 00:35:23;;;;;;;16.20;9.90;;;20.20;90.40;;;;;;5052158;28;20028;-63
2021/11/24 00:37:48;;;;;;;13.73;8.98;;;20.20;90.70;;;;;;5033229;28;20071;-63
2021/11/24 00:40:14;;;;;;;14.68;9.60;;;20.00;91.00;;;;;;5042588;28;20033;-63
2021/11/24 00:42:40;;;;;;;13.80;9.70;;;19.80;90.50;;;;;;5040465;28;20021;-63
2021/11/24 00:45:06;;;;;;;15.55;9.20;;;19.50;90.60;;;;;;5052850;28;20036;-63
2021/11/24 00:47:32;;;;;;;12.90;9.07;;;19.00;90.50;;;;;;5052766;28;20494;-63
2021/11/24 00:49:58;;;;;;;13.32;9.05;;;18.70;90.40;;;;;;5033213;28;20041;-63
2021/11/24 00:52:23;;;;;;;14.25;9.27;;;19.60;90.60;;;;;;5049760;28;20040;-63
2021/11/24 00:54:49;;;;;;;13.27;8.98;;;19.00;90.40;;;;;;5053491;28;20086;-62
2021/11/24 00:57:15;;;;;;;14.68;9.35;;;11.30;85.10;;;;;;5056523;28;20036;-63
2021/11/24 00:59:41;;;;;;;13.77;9.02;;;18.10;89.60;;;;;;5052588;28;20033;-63
2021/11/24 01:02:06;;;;;;;15.80;10.27;;;19.00;90.10;;;;;;5041018;28;20083;-63
2021/11/24 01:04:32;;;;;;;13.63;9.57;;;;;;;;;;5049602;28;20021;-62
2021/11/24 01:06:58;;;;;;;14.45;9.98;;;;;;;;;;5047658;28;20021;-62
2021/11/24 01:09:24;;;;;;;14.40;9.98;;;;;;;;;;5043760;28;20112;-62
2021/11/24 01:11:50;;;;;;;12.05;9.63;;;;;;;;;;5044098;28;20425;-62
2021/11/24 01:14:17;;;;;;;13.80;9.15;;;;;;;;;;5045540;28;20020;-62
2021/11/24 01:16:44;;;;;;;13.70;9.32;;;;;;;;;;5056267;28;20108;-62
2021/11/24 01:19:10;;;;;;;13.13;8.40;;;;;;;;;;5053348;28;20029;-62
2021/11/24 01:21:36;;;;;;;11.73;9.20;;;;;;;;;;5051334;28;20091;-62
2021/11/24 01:24:02;;;;;;;13.45;9.07;;;;;;;;;;5039461;28;20044;-62
2021/11/24 01:26:28;;;;;;;13.43;9.65;;;;;;;;;;5055974;28;20060;-62
2021/11/24 01:28:54;;;;;;;13.52;9.23;;;;;;;;;;5048019;28;20471;-62
2021/11/24 01:31:20;;;;;;;12.00;8.68;;;;;;;;;;5044887;28;20099;-62
2021/11/24 01:33:47;;;;;;;14.30;9.55;;;;;;;;;;5053608;28;20124;-62
2021/11/24 01:36:13;;;;;;;10.07;7.97;;;;;;;;;;5051278;28;20143;-62
2021/11/24 01:38:39;;;;;;;13.27;8.27;;;;;;;;;;5050287;28;20029;-63
2021/11/24 01:41:05;;;;;;;12.55;9.05;;;;;;;;;;5051855;28;20029;-62
2021/11/24 01:43:31;;;;;;;11.98;8.25;;;;;;;;;;5053914;28;20383;-62
2021/11/24 01:45:57;;;;;;;13.25;8.82;;;;;;;;;;5055755;28;20029;-62
2021/11/24 01:48:27;;;;;;;12.13;8.27;;;;;;;;;;5051518;28;20024;-62
2021/11/24 01:50:53;;;;;;;12.52;8.40;;;;;;;;;;5047664;28;20383;-61
2021/11/24 01:53:19;;;;;;;13.15;8.93;;;;;;;;;;5051534;28;20041;-62
2021/11/24 01:55:45;;;;;;;13.85;8.95;;;16.30;95.00;;;;;;5053588;28;20693;-62
2021/11/24 01:58:11;;;;;;;13.15;9.30;;;16.80;93.30;;;;;;5053155;28;20029;-61
2021/11/24 02:00:37;;;;;;;10.88;7.90;;;16.50;93.50;;;;;;5039165;28;20041;-62
2021/11/24 02:03:05;;;;;;;11.00;7.70;;;17.00;93.60;;;;;;5034470;28;20036;-62
2021/11/24 02:05:31;;;;;;;12.93;8.48;;;17.70;93.90;;;;;;5037238;28;20030;-62
2021/11/24 02:07:56;;;;;;;15.88;9.10;;;17.80;93.90;;;;;;5037009;28;20048;-62
2021/11/24 02:10:23;;;;;;;11.18;8.32;;;17.20;93.90;;;;;;5039524;28;20040;-62
2021/11/24 02:12:49;;;;;;;11.13;7.75;;;17.80;93.80;;;;;;5054747;28;20049;-62
2021/11/24 02:15:15;;;;;;;13.45;9.35;;;17.50;93.80;;;;;;5049055;28;20020;-62
2021/11/24 02:17:41;;;;;;;14.88;9.57;;;17.00;93.50;;;;;;5051353;28;20036;-62
2021/11/24 02:20:12;;;;;;;12.30;9.77;;;16.90;93.90;;;;;;5052703;28;20056;-62
2021/11/24 02:22:38;;;;;;;13.43;9.85;;;16.40;94.10;;;;;;5054694;28;20028;-62
2021/11/24 02:25:04;;;;;;;15.10;10.30;;;16.90;94.50;;;;;;5042129;28;20554;-62
2021/11/24 02:27:30;;;;;;;13.93;10.63;;;16.20;94.50;;;;;;5053468;28;20115;-62
2021/11/24 02:29:55;;;;;;;12.95;9.05;;;17.00;94.90;;;;;;5042929;28;20082;-62
2021/11/24 02:32:21;;;;;;;14.45;9.38;;;16.80;95.10;;;;;;5054676;28;20089;-62
2021/11/24 02:34:46;;;;;;;13.95;9.90;;;16.80;95.20;;;;;;5053423;28;20146;-63
2021/11/24 02:37:12;;;;;;;13.98;10.15;;;18.20;95.90;;;;;;5042586;28;20065;-63
2021/11/24 02:39:38;;;;;;;12.77;9.38;;;18.60;96.50;;;;;;5044445;28;20040;-63
2021/11/24 02:42:04;;;;;;;15.23;10.32;;;18.50;96.30;;;;;;5051680;28;20036;-63
2021/11/24 02:44:37;;;;;;;15.23;10.35;;;18.60;96.20;;;;;;5036590;28;20029;-63
2021/11/24 02:47:21;;;;;;;15.40;9.98;;;18.70;96.70;;;;;;5048547;28;20099;-62
2021/11/24 02:49:50;;;;;;;16.00;9.98;;;18.80;97.00;;;;;;5050004;28;20033;-62
2021/11/24 02:52:19;;;;;;;14.27;9.55;;;18.90;96.40;;;;;;5046754;28;20045;-63
2021/11/24 02:54:50;;;;;;;17.30;9.55;;;19.00;96.50;;;;;;5045641;28;20079;-63
2021/11/24 02:57:16;;;;;;;14.80;10.13;;;19.00;96.40;;;;;;5038844;28;20565;-63
2021/11/24 02:59:41;;;;;;;15.20;11.32;;;18.90;96.40;;;;;;5047150;28;20069;-63
2021/11/24 03:02:07;;;;;;;15.55;9.90;;;18.80;96.40;;;;;;5044946;28;20032;-63
2021/11/24 03:04:33;;;;;;;13.93;9.50;;;18.70;96.40;;;;;;5053432;28;20033;-63
2021/11/24 03:07:00;;;;;;;15.65;9.77;;;18.70;96.60;;;;;;5046424;28;20033;-63
2021/11/24 03:09:26;;;;;;;12.90;9.32;;;18.50;96.60;;;;;;5052116;28;20047;-63
2021/11/24 03:11:53;;;;;;;13.13;10.27;;;18.50;96.40;;;;;;5053461;28;20087;-63
2021/11/24 03:14:20;;;;;;;12.55;9.80;;;18.50;96.60;;;;;;5052754;28;20034;-64
2021/11/24 03:16:46;;;;;;;13.45;10.13;;;18.40;96.80;;;;;;5053685;28;20029;-63
2021/11/24 03:19:11;;;;;;;14.13;9.48;;;18.20;96.70;;;;;;5050696;28;20112;-63
2021/11/24 03:21:37;;;;;;;13.60;9.70;;;18.40;97.80;;;;;;5054094;28;20444;-63
2021/11/24 03:24:03;;;;;;;18.00;11.60;;;18.20;97.00;;;;;;5049860;28;20062;-63
2021/11/24 03:26:29;;;;;;;15.25;10.93;;;17.50;96.90;;;;;;5041778;28;20063;-63
2021/11/24 03:28:55;;;;;;;13.43;9.93;;;;;;;;;;5050105;28;20086;-62
2021/11/24 03:31:21;;;;;;;18.15;10.85;;;17.80;99.30;;;;;;5038152;28;20096;-62
2021/11/24 03:33:46;;;;;;;14.02;10.82;;;18.00;99.00;;;;;;5034717;28;20073;-63
2021/11/24 03:36:13;;;;;;;14.48;10.82;;;18.00;98.30;;;;;;5053667;28;20474;-62
2021/11/24 03:38:39;;;;;;;16.38;11.18;;;18.20;98.50;;;;;;5052664;28;20039;-62
2021/11/24 03:41:05;;;;;;;15.88;11.10;;;;;;;;;;5046953;28;20017;-63
2021/11/24 03:43:31;;;;;;;18.48;11.77;;;;;;;;;;5041051;28;20021;-63
2021/11/24 03:45:57;;;;;;;17.38;11.55;;;;;;;;;;5052280;28;20036;-63
2021/11/24 03:48:22;;;;;;;16.42;11.60;;;18.50;99.80;;;;;;5052587;28;20029;-63
2021/11/24 03:50:48;;;;;;;16.15;11.75;;;18.40;97.60;;;;;;5047476;28;20021;-63
2021/11/24 03:53:14;;;;;;;15.02;11.45;;;18.20;97.30;;;;;;5046262;28;20032;-63
2021/11/24 03:55:39;;;;;;;18.05;12.15;;;18.40;97.70;;;;;;5050633;28;20051;-63
2021/11/24 03:58:05;;;;;;;15.32;11.63;;;18.40;97.70;;;;;;5048094;28;20029;-63
2021/11/24 04:00:33;;;;;;;14.30;11.57;;;18.40;97.90;;;;;;5052819;28;20040;-63
2021/11/24 04:02:59;;;;;;;14.98;10.82;;;;;;;;;;5042186;28;20033;-63
2021/11/24 04:05:25;;;;;;;15.75;11.70;;;;;;;;;;5046031;28;20033;-63
2021/11/24 04:07:51;;;;;;;16.92;12.50;;;17.80;95.90;;;;;;5051285;28;20024;-62
2021/11/24 04:10:17;;;;;;;19.80;12.68;;;18.30;96.40;;;;;;5039464;28;20126;-62
2021/11/24 04:12:43;;;;;;;17.17;12.25;;;18.30;97.00;;;;;;5050872;28;20095;-62
2021/11/24 04:15:12;;;;;;;15.30;10.93;;;18.30;97.20;;;;;;5049256;28;20025;-62
2021/11/24 04:17:38;;;;;;;15.55;11.48;;;18.30;97.60;;;;;;5033641;28;20030;-62
2021/11/24 04:20:05;;;;;;;16.40;12.00;;;18.20;97.50;;;;;;5033563;28;20057;-63
2021/11/24 04:22:30;;;;;;;14.23;11.23;;;18.20;97.60;;;;;;5037978;28;20064;-63
2021/11/24 04:24:56;;;;;;;16.90;12.70;;;18.30;97.90;;;;;;5051395;28;20513;-63
2021/11/24 04:27:22;;;;;;;16.33;12.15;;;18.20;97.90;;;;;;5050938;28;20076;-63
2021/11/24 04:29:48;;;;;;;14.60;11.32;;;18.00;97.90;;;;;;5035303;28;20061;-62
2021/11/24 04:32:16;;;;;;;14.90;12.07;;;18.20;98.20;;;;;;5050502;28;20088;-62
2021/11/24 04:34:42;;;;;;;17.73;12.27;;;17.80;98.40;;;;;;5052592;28;20031;-63
2021/11/24 04:37:08;;;;;;;16.23;12.85;;;17.90;98.80;;;;;;5042349;28;20037;-62
2021/11/24 04:39:33;;;;;;;20.10;12.85;;;18.10;99.10;;;;;;5049678;28;20029;-62
2021/11/24 04:41:59;;;;;;;19.23;13.18;;;;;;;;;;5051056;28;20028;-62
2021/11/24 04:44:25;;;;;;;18.05;13.05;;;;;;;;;;5033950;28;20083;-62
2021/11/24 04:46:52;;;;;;;15.90;13.50;;;;;;;;;;5049150;28;20032;-62
2021/11/24 04:49:17;;;;;;;17.70;12.73;;;17.60;96.30;;;;;;5046182;28;20022;-62
2021/11/24 04:51:43;;;;;;;20.95;13.68;;;17.80;96.50;;;;;;5052115;28;20037;-62
2021/11/24 04:54:08;;;;;;;18.67;13.40;;;17.80;97.30;;;;;;5043689;28;20466;-62
2021/11/24 04:56:34;;;;;;;18.08;13.30;;;17.70;99.90;;;;;;5048489;28;20047;-62
2021/11/24 04:59:02;;;;;;;21.33;14.07;;;17.50;99.90;;;;;;5051566;28;20060;-62
2021/11/24 05:01:27;;;;;;;18.55;14.60;;;17.50;99.40;;;;;;5032631;28;20541;-62
2021/11/24 05:03:53;;;;;;;17.88;14.38;;;17.50;98.70;;;;;;5034248;28;20038;-63
2021/11/24 05:06:21;;;;;;;21.00;14.30;;;;;;;;;;5052243;28;20041;-62
2021/11/24 05:08:47;;;;;;;19.30;13.33;;;;;;;;;;5046634;28;20025;-62
2021/11/24 05:11:14;;;;;;;16.63;13.50;;;;;;;;;;5052002;28;20021;-62
2021/11/24 05:13:46;;;;;;;17.55;13.73;;;;;;;;;;5049731;28;20071;-63
2021/11/24 05:16:12;;;;;;;20.65;14.23;;;;;;;;;;5049915;28;20021;-63
2021/11/24 05:18:41;;;;;;;17.30;13.40;;;17.20;99.90;;;;;;5039973;28;20044;-63
2021/11/24 05:21:33;;;;;;;16.77;12.93;;;;;;;;;;5050934;28;20021;-63
2021/11/24 05:23:59;;;;;;;16.02;13.02;;;;;;;;;;5037464;28;20029;-63
2021/11/24 05:26:26;;;;;;;19.35;12.45;;;;;;;;;;5052442;28;20027;-62
2021/11/24 05:28:52;;;;;;;20.20;14.27;;;;;;;;;;5048490;28;20025;-62
2021/11/24 05:31:18;;;;;;;21.23;13.77;;;;;;;;;;5051594;28;20036;-62
2021/11/24 05:33:46;;;;;;;21.23;14.57;;;;;;;;;;5051179;28;20114;-62
2021/11/24 05:36:12;;;;;;;19.15;14.18;;;;;;;;;;5045752;28;20024;-62
2021/11/24 05:38:38;;;;;;;22.10;14.68;;;;;;;;;;5049274;28;20033;-62
2021/11/24 05:41:04;;;;;;;23.73;15.70;;;;;;;;;;5054037;28;20017;-62
2021/11/24 05:43:31;;;;;;;22.10;14.38;;;;;;;;;;5054879;28;20047;-62
2021/11/24 05:48:24;;;;;;;20.93;14.57;;;;;;;;;;5047003;28;20041;-62
2021/11/24 05:50:51;;;;;;;19.50;13.68;;;;;;;;;;5046062;28;20028;-63
2021/11/24 05:53:18;;;;;;;20.98;13.93;;;;;;;;;;5046315;28;20029;-63
2021/11/24 05:55:45;;;;;;;20.48;13.85;;;;;;;;;;5055724;28;20017;-63
2021/11/24 05:58:12;;;;;;;19.97;12.87;;;;;;;;;;5048417;28;20033;-63
2021/11/24 06:00:38;;;;;;;17.90;12.68;;;;;;;;;;5052816;28;20120;-63
2021/11/24 06:03:04;;;;;;;23.27;14.40;;;;;;;;;;5050235;28;20082;-63
2021/11/24 06:05:30;;;;;;;20.67;14.77;;;;;;;;;;5045356;28;20030;-63
2021/11/24 06:07:56;;;;;;;23.15;14.73;;;17.50;98.90;;;;;;5047554;28;20094;-63
2021/11/24 06:10:22;;;;;;;19.20;15.95;;;17.60;98.00;;;;;;5052862;28;20072;-63
2021/11/24 06:12:47;;;;;;;20.93;15.43;;;17.60;96.50;;;;;;5039820;28;20068;-63
2021/11/24 06:15:15;;;;;;;19.37;15.20;;;17.60;96.70;;;;;;5053189;28;20060;-63
2021/11/24 06:17:42;;;;;;;21.17;14.65;;;17.50;99.50;;;;;;5052228;28;20035;-63
2021/11/24 06:20:09;;;;;;;21.13;14.68;;;;;;;;;;5051929;28;20029;-63
2021/11/24 06:22:35;;;;;;;21.13;15.67;;;;;;;;;;5053913;28;20486;-63
2021/11/24 06:25:01;;;;;;;21.87;15.37;;;;;;;;;;5051769;28;20036;-63
2021/11/24 06:27:26;;;;;;;25.33;16.10;;;17.80;99.90;;;;;;5054806;28;20036;-63
2021/11/24 06:29:52;;;;;;;23.48;17.00;;;17.90;99.90;;;;;;5054071;28;20028;-63
2021/11/24 06:32:18;;;;;;;25.90;16.53;;;17.90;99.90;;;;;;5051352;28;20100;-63
2021/11/24 06:34:43;;;;;;;23.95;16.80;;;17.90;99.90;;;;;;5044147;28;20013;-63
2021/11/24 06:37:09;;;;;;;20.13;15.40;;;17.90;99.90;;;;;;5049606;28;20119;-64
2021/11/24 06:39:35;;;;;;;26.63;16.83;;;;;;;;;;5051617;28;20033;-64
2021/11/24 06:42:03;;;;;;;22.73;15.65;;;;;;;;;;5054107;28;20051;-63
2021/11/24 06:44:29;;;;;;;22.15;14.98;;;;;;;;;;5033172;28;20481;-64
2021/11/24 06:46:55;;;;;;;21.73;14.67;;;;;;;;;;5047590;28;20029;-63
2021/11/24 06:49:21;;;;;;;19.93;15.63;;;;;;;;;;5049122;28;20474;-63
2021/11/24 06:51:47;;;;;;;20.03;15.27;;;;;;;;;;5045714;28;20037;-63
2021/11/24 06:54:13;;;;;;;25.33;15.68;;;17.20;97.00;;;;;;5048038;28;20021;-63
2021/11/24 06:56:38;;;;;;;22.30;14.90;;;17.80;98.00;;;;;;5046734;28;20043;-64
2021/11/24 06:59:04;;;;;;;22.58;14.43;;;17.60;97.50;;;;;;5050462;28;20036;-63
2021/11/24 07:01:30;;;;;;;23.67;15.70;;;17.70;96.30;;;;;;5049517;28;20041;-63
2021/11/24 07:03:56;;;;;;;24.80;15.33;;;17.40;96.70;;;;;;5045160;28;20041;-64
2021/11/24 07:06:21;;;;;;;21.43;15.47;;;17.40;96.50;;;;;;5046732;28;20041;-63
2021/11/24 07:08:47;;;;;;;23.77;15.27;;;17.70;96.40;;;;;;5050088;28;20032;-64
2021/11/24 07:11:14;;;;;;;23.40;15.73;;;17.50;94.50;;;;;;5048979;28;20032;-64
2021/11/24 07:13:40;;;;;;;23.20;14.90;;;17.60;94.00;;;;;;5045615;28;20044;-64
2021/11/24 07:16:05;;;;;;;23.07;16.40;;;17.40;93.80;;;;;;5047166;28;20021;-64
2021/11/24 07:18:31;;;;;;;27.40;16.17;;;17.30;94.00;;;;;;5046103;28;20024;-64
2021/11/24 07:20:57;;;;;;;26.70;16.23;;;17.60;94.20;;;;;;5043699;28;20032;-64
2021/11/24 07:23:22;;;;;;;24.77;16.50;;;17.70;95.00;;;;;;5045520;28;20033;-63
2021/11/24 07:25:48;;;;;;;25.97;15.27;;;17.60;95.30;;;;;;5048991;28;20796;-64
2021/11/24 07:28:14;;;;;;;24.83;16.40;;;17.60;95.90;;;;;;5045939;28;20028;-63
2021/11/24 07:30:40;;;;;;;33.43;16.60;;;17.60;96.00;;;;;;5049234;28;20055;-64
2021/11/24 07:33:05;;;;;;;22.50;15.10;;;17.60;96.50;;;;;;5049784;28;20502;-63
2021/11/24 07:35:32;;;;;;;23.97;16.27;;;17.60;96.90;;;;;;5045571;28;20075;-63
2021/11/24 07:37:58;;;;;;;22.67;15.63;;;17.70;97.30;;;;;;5044829;28;20137;-63
2021/11/24 07:40:24;;;;;;;28.30;15.80;;;17.90;98.00;;;;;;5047649;28;20091;-63
2021/11/24 07:42:50;;;;;;;23.42;15.18;;;17.70;98.80;;;;;;5046338;28;20036;-63
2021/11/24 07:45:17;;;;;;;22.67;16.00;;;18.00;99.20;;;;;;5045824;28;20029;-63
2021/11/24 07:47:42;;;;;;;24.40;15.47;;;18.00;96.20;;;;;;5045646;28;20029;-63
2021/11/24 07:50:08;;;;;;;28.63;15.60;;;17.70;96.30;;;;;;5047247;28;20044;-64
2021/11/24 07:52:35;;;;;;;24.90;16.33;;;17.80;95.40;;;;;;5044134;28;20048;-63
2021/11/24 07:55:01;;;;;;;23.50;15.40;;;17.80;95.00;;;;;;5050095;28;20034;-63
2021/11/24 07:57:28;;;;;;;23.37;14.90;;;17.70;94.90;;;;;;5052588;28;20443;-63
2021/11/24 07:59:54;;;;;;;21.93;16.17;;;17.70;94.60;;;;;;5039536;28;20029;-63
2021/11/24 08:02:20;;;;;;;27.27;15.97;;;17.80;95.80;;;;;;5036486;28;20033;-63
2021/11/24 08:04:45;;;;;;;26.63;15.97;;;17.90;94.50;;;;;;5052304;28;20076;-63
2021/11/24 08:07:11;;;;;;;24.15;15.45;;;17.90;94.00;;;;;;5053375;28;20025;-63
2021/11/24 08:09:37;;;;;;;21.60;15.30;;;17.90;93.80;;;;;;5052469;28;20033;-64
2021/11/24 08:12:03;;;;;;;26.77;16.73;;;17.90;93.80;;;;;;5051731;28;20064;-63
2021/11/24 08:14:28;;;;;;;25.90;15.98;;;17.90;93.80;;;;;;5049225;28;20037;-64
2021/11/24 08:16:55;;;;;;;27.73;16.10;;;18.00;93.90;;;;;;5052973;28;20024;-63
2021/11/24 08:19:21;;;;;;;21.30;15.77;;;18.00;94.00;;;;;;5050780;28;20112;-64
2021/11/24 08:21:47;;;;;;;20.90;14.53;;;17.90;93.80;;;;;;5053406;28;20036;-64
2021/11/24 08:24:13;;;;;;;19.75;15.02;;;17.90;93.50;;;;;;5052116;28;20360;-63
2021/11/24 08:26:42;;;;;;;21.70;15.23;;;17.90;93.60;;;;;;5039370;28;20037;-63
2021/11/24 08:29:08;;;;;;;22.30;14.85;;;18.20;94.00;;;;;;5040660;28;20028;-63
2021/11/24 08:31:41;;;;;;;22.73;15.50;;;18.20;93.80;;;;;;5051039;28;20544;-62
2021/11/24 08:34:10;;;;;;;28.52;14.68;;;18.30;93.70;;;;;;5051390;28;20237;-62
2021/11/24 08:36:37;;;;;;;22.00;14.45;;;18.20;93.90;;;;;;5051851;28;20087;-62
2021/11/24 08:39:05;;;;;;;21.13;15.15;;;17.90;93.30;;;;;;5048745;28;20041;-62
2021/11/24 08:41:30;;;;;;;26.63;16.87;;;18.00;93.80;;;;;;5051425;28;20367;-62
2021/11/24 08:43:56;;;;;;;26.83;17.40;;;17.90;93.20;;;;;;5050891;28;20075;-62
2021/11/24 08:46:21;;;;;;;21.77;15.05;;;17.90;93.50;;;;;;5052598;28;20029;-63
2021/11/24 08:48:47;;;;;;;25.05;16.10;;;18.00;93.30;;;;;;5049836;28;20041;-63
2021/11/24 08:51:13;;;;;;;18.70;15.13;;;18.10;94.20;;;;;;5033107;28;20025;-63
2021/11/24 08:53:39;;;;;;;26.05;17.08;;;18.20;95.00;;;;;;5039614;28;20052;-63
2021/11/24 08:56:05;;;;;;;21.23;16.13;;;18.20;94.10;;;;;;5032681;28;20026;-63
2021/11/24 08:58:31;;;;;;;18.90;13.27;;;18.20;93.90;;;;;;5036934;28;20033;-63
2021/11/24 09:00:57;;;;;;;19.85;14.50;;;19.30;93.80;;;;;;5051384;28;20056;-63
2021/11/24 09:03:23;;;;;;;23.55;15.88;;;18.30;93.00;;;;;;5052497;28;20068;-63
2021/11/24 09:05:49;;;;;;;23.58;13.60;;;18.30;93.00;;;;;;5032049;28;20124;-63
2021/11/24 09:08:14;;;;;;;20.73;13.48;;;19.40;93.10;;;;;;5031353;28;20036;-63
2021/11/24 09:10:42;;;;;;;18.80;13.32;;;19.40;93.10;;;;;;5049431;28;20028;-64
2021/11/24 09:13:08;;;;;;;18.92;12.65;;;19.30;92.50;;;;;;5047587;28;20042;-63
2021/11/24 09:15:34;;;;;;;17.88;11.65;;;19.40;92.80;;;;;;5052414;28;20434;-64
2021/11/24 09:18:01;;;;;;;15.00;11.10;;;18.40;91.60;;;;;;5054466;28;20035;-64
2021/11/24 09:20:27;;;;;;;20.88;12.07;;;19.50;92.90;;;;;;5039971;28;20092;-63
2021/11/24 09:22:53;;;;;;;14.98;9.48;;;18.40;90.60;;;;;;5036681;28;20025;-63
2021/11/24 09:25:22;;;;;;;17.85;8.90;;;18.40;91.10;;;;;;5049967;28;20037;-64
2021/11/24 09:30:23;;;;;;;13.98;9.20;;;18.50;92.00;;;;;;5041853;28;20033;-64
2021/11/24 09:32:48;;;;;;;18.20;11.43;;;18.70;91.70;;;;;;5036120;28;20061;-63
2021/11/24 09:35:15;;;;;;;18.33;11.88;;;18.60;90.50;;;;;;5047459;28;20116;-64
2021/11/24 09:37:41;;;;;;;20.95;11.20;;;18.70;90.60;;;;;;5056015;28;20029;-63
2021/11/24 09:40:08;;;;;;;19.67;9.32;;;18.70;88.10;;;;;;5044017;28;20037;-64
2021/11/24 09:42:36;;;;;;;16.20;10.90;;;18.30;89.30;;;;;;5046818;28;20408;-64
2021/11/24 09:45:03;;;;;;;13.13;9.98;;;18.50;86.80;;;;;;5044953;28;20387;-64
2021/11/24 09:47:30;;;;;;;17.65;10.88;;;18.70;90.00;;;;;;5036164;28;20013;-64
2021/11/24 09:49:59;;;;;;;18.40;10.82;;;18.70;89.90;;;;;;5044021;28;20391;-64
2021/11/24 09:52:26;;;;;;;16.30;10.85;;;18.70;89.80;;;;;;5055743;28;20070;-64
2021/11/24 09:54:52;;;;;;;14.98;9.48;;;18.60;86.10;;;;;;5053708;28;20478;-63
2021/11/24 09:57:19;;;;;;;13.38;9.20;;;18.90;87.10;;;;;;5044377;28;20036;-64
2021/11/24 09:59:46;;;;;;;14.20;9.80;;;18.70;85.80;;;;;;5055699;28;20057;-63
2021/11/24 10:02:14;;;;;;;16.02;9.85;;;19.60;89.40;;;;;;5045241;28;20029;-63
2021/11/24 10:04:45;;;;;;;16.38;9.55;;;19.00;88.00;;;;;;5037233;28;20025;-63
2021/11/24 10:07:13;;;;;;;13.43;9.57;;;18.90;82.50;;;;;;5052107;28;20064;-63
2021/11/24 10:09:40;;;;;;;13.48;8.80;;;18.00;87.10;;;;;;5055490;28;20388;-63
2021/11/24 10:12:07;;;;;;;19.17;8.70;;;18.00;85.10;;;;;;5054185;28;20069;-65
2021/11/24 10:14:33;;;;;;;15.43;10.02;;;18.00;84.80;;;;;;5055718;28;20028;-64
2021/11/24 10:17:24;;;;;;;13.90;8.70;;;19.00;88.30;;;;;;5047689;28;20538;-64
2021/11/24 10:20:02;;;;;;;14.32;9.07;;;18.90;85.20;;;;;;5037082;28;20109;-64
2021/11/24 10:22:28;;;;;;;14.82;8.52;;;18.60;86.40;;;;;;5045718;28;20029;-64
2021/11/24 10:25:08;;;;;;;15.32;9.70;;;18.70;84.30;;;;;;5054091;28;20095;-65
2021/11/24 10:27:48;;;;;;;11.25;7.80;;;19.00;84.90;;;;;;5054138;28;20094;-64
2021/11/24 10:30:25;;;;;;;16.17;7.78;;;19.20;85.20;;;;;;5055332;28;20013;-64
2021/11/24 10:32:50;;;;;;;13.40;8.95;;;19.20;84.10;;;;;;5052683;28;20041;-63
2021/11/24 10:35:24;;;;;;;12.40;9.70;;;19.20;85.70;;;;;;5054962;28;20109;-64
2021/11/24 10:38:12;;;;;;;11.57;7.55;;;19.20;83.60;;;;;;5054027;28;20049;-64
2021/11/24 10:40:44;;;;;;;15.98;7.47;;;19.20;80.80;;;;;;5052762;28;20031;-64
2021/11/24 10:43:15;;;;;;;12.40;7.80;;;19.20;84.40;;;;;;5038571;28;20095;-63
2021/11/24 10:46:01;;;;;;;13.05;8.40;;;19.20;84.00;;;;;;5034979;28;20018;-64
2021/11/24 10:48:31;;;;;;;10.23;7.72;;;19.20;83.50;;;;;;5034877;28;20041;-63
2021/11/24 10:50:59;;;;;;;13.40;7.13;;;19.20;85.40;;;;;;5044942;28;20108;-64
2021/11/24 10:53:25;;;;;;;14.18;9.02;;;19.40;84.40;;;;;;5049021;28;20083;-64
2021/11/24 10:55:51;;;;;;;16.10;9.82;;;19.00;84.20;;;;;;5049147;28;20475;-64
2021/11/24 10:58:18;;;;;;;11.95;8.25;;;19.20;84.90;;;;;;5048562;28;20064;-62
2021/11/24 11:01:02;;;;;;;14.27;8.85;;;19.20;85.20;;;;;;5036458;28;20464;-63
2021/11/24 11:03:38;;;;;;;14.75;9.25;;;19.40;84.80;;;;;;5033479;28;20422;-63
2021/11/24 11:06:04;;;;;;;18.02;11.77;;;19.40;84.40;;;;;;5035973;28;20014;-63
2021/11/24 11:08:30;;;;;;;15.75;11.38;;;19.50;87.20;;;;;;5066807;28;20036;-63
2021/11/24 11:10:59;;;;;;;17.50;12.32;;;19.50;86.30;;;;;;5054294;28;20100;-64
2021/11/24 11:13:31;;;;;;;16.27;12.00;;;19.50;88.00;;;;;;5037462;28;20421;-63
2021/11/24 11:15:58;;;;;;;20.77;12.55;;;19.60;88.60;;;;;;5034348;28;20021;-63
2021/11/24 11:18:29;;;;;;;22.63;11.68;;;19.60;89.30;;;;;;5034263;28;20384;-63
2021/11/24 11:21:02;;;;;;;22.45;12.55;;;19.50;92.20;;;;;;5034055;28;20028;-63
2021/11/24 11:23:32;;;;;;;20.63;13.90;;;19.60;93.10;;;;;;5034353;28;20034;-64
2021/11/24 11:26:10;;;;;;;22.92;13.43;;;12.10;90.40;;;;;;5034470;28;20105;-63
2021/11/24 11:28:37;;;;;;;19.10;12.73;;;;;;;;;;5051298;28;20383;-64
2021/11/24 11:31:04;;;;;;;20.20;13.20;;;;;;;;;;5053883;28;20029;-63
2021/11/24 11:33:32;;;;;;;20.33;13.38;;;;;;;;;;5038548;28;20136;-62
2021/11/24 11:36:07;;;;;;;18.38;12.95;;;;;;;;;;5053380;28;20139;-63
2021/11/24 11:38:32;;;;;;;;;;;;;;;;;;5053528;28;20070;-63
2021/11/24 11:41:00;;;;;;;15.25;12.05;;;;;;;;;;5053300;28;19912;-64
2021/11/24 11:43:26;;;;;;;15.55;11.43;;;;;;;;;;5051860;28;20031;-64
2021/11/24 11:45:52;;;;;;;20.65;13.02;;;;;;;;;;5051865;28;20021;-63
2021/11/24 11:48:32;;;;;;;16.80;12.00;;;;;;;;;;5038842;28;20391;-63
2021/11/24 11:51:03;;;;;;;17.38;10.98;;;;;;;;;;5033617;28;20237;-63
2021/11/24 11:53:33;;;;;;;16.02;11.27;;;;;;;;;;5048789;28;20632;-64
2021/11/24 11:56:15;;;;;;;22.17;13.70;;;;;;;;;;5053730;28;20025;-63
2021/11/24 11:59:07;;;;;;;17.70;12.30;;;;;;;;;;5046098;28;20025;-63
2021/11/24 12:01:43;;;;;;;18.35;11.40;;;;;;;;;;5031448;28;20037;-63
2021/11/24 12:04:09;;;;;;;15.40;11.50;;;;;;;;;;5033497;28;20032;-63
2021/11/24 12:06:42;;;;;;;13.63;11.55;;;;;;;;;;5031790;28;20029;-63
2021/11/24 12:09:08;;;;;;;17.10;11.95;;;;;;;;;;5052139;28;20166;-63
2021/11/24 12:11:53;;;;;;;13.98;11.00;;;;;;;;;;5053123;28;20067;-63
2021/11/24 12:14:37;;;;;;;16.35;11.23;;;;;;;;;;5053194;28;20072;-63
2021/11/24 12:17:23;;;;;;;16.65;11.18;;;;;;;;;;5049725;28;20540;-63
2021/11/24 12:19:49;;;;;;;16.95;12.15;;;;;;;;;;5032641;28;20499;-63
2021/11/24 12:22:15;;;;;;;19.40;11.15;;;;;;;;;;5043371;28;20087;-63
2021/11/24 12:24:41;;;;;;;16.30;11.23;;;;;;;;;;5033106;28;20033;-63
2021/11/24 12:27:07;;;;;;;15.73;10.55;;;;;;;;;;5033096;28;20394;-63
2021/11/24 12:29:43;;;;;;;16.15;11.80;;;;;;;;;;5032985;28;20025;-63
2021/11/24 12:32:09;;;;;;;14.07;11.95;;;;;;;;;;5038166;28;20049;-63
2021/11/24 12:34:46;;;;;;;16.92;11.25;;;;;;;;;;5032906;28;20025;-63
2021/11/24 12:37:22;;;;;;;15.90;10.68;;;;;;;;;;5047937;28;20059;-62
2021/11/24 12:39:48;;;;;;;18.75;12.00;;;;;;;;;;5039563;28;20025;-64
2021/11/24 12:42:14;;;;;;;12.30;10.75;;;;;;;;;;5049551;28;20033;-64
2021/11/24 12:44:53;;;;;;;17.17;11.80;;;;;;;;;;5041750;28;20029;-63
2021/11/24 12:47:23;;;;;;;15.70;11.57;;;;;;;;;;5048375;28;20112;-64
2021/11/24 12:49:49;;;;;;;15.10;10.98;;;;;;;;;;5032753;28;20499;-63
2021/11/24 12:52:15;;;;;;;14.50;10.30;;;;;;;;;;5031421;28;20114;-63
2021/11/24 12:54:42;;;;;;;14.70;11.25;;;;;;;;;;5032796;28;20029;-63
2021/11/24 12:57:11;;;;;;;16.83;11.57;;;;;;;;;;5032539;28;20565;-63
2021/11/24 12:59:40;;;;;;;21.20;10.98;;;;;;;;;;5049191;28;20032;-63
2021/11/24 13:02:09;;;;;;;10.23;8.27;;;;;;;;;;5051139;28;20025;-64
2021/11/24 13:04:37;;;;;;;14.52;10.88;;;;;;;;;;5032653;28;20523;-63
2021/11/24 13:07:04;;;;;;;13.85;10.25;;;;;;;;;;5047067;28;20393;-62
2021/11/24 13:09:35;;;;;;;16.95;11.02;;;;;;;;;;5031327;28;20029;-63